Time;durP1;ratioP1;P1;durP2;ratioP2;P2;SDS_P1;SDS_P2;PMS_P1;PMS_P2;Temp;Humidity;BMP_temperature;BMP_pressure;BME280_temperature;BME280_humidity;BME280_pressure;Samples;Min_cycle;Max_cycle;Signal;HPM_P1;HPM_P2
2022/04/12 00:01:07;;;;;;;12.07;6.20;;;9.20;72.70;;;;;;5040704;28;20484;-80
2022/04/12 00:03:32;;;;;;;14.97;6.67;;;9.10;73.00;;;;;;5050269;28;20181;-79
2022/04/12 00:05:58;;;;;;;8.13;4.80;;;9.10;73.70;;;;;;5043318;28;20447;-79
2022/04/12 00:08:24;;;;;;;11.43;5.37;;;9.10;73.90;;;;;;5041717;28;20435;-80
2022/04/12 00:10:50;;;;;;;11.00;5.83;;;9.10;73.70;;;;;;5036483;28;20482;-80
2022/04/12 00:13:20;;;;;;;11.33;5.60;;;9.10;73.70;;;;;;5032933;28;20178;-80
2022/04/12 00:15:49;;;;;;;10.80;5.80;;;9.00;73.70;;;;;;5038935;28;20451;-80
2022/04/12 00:21:00;;;;;;;11.17;5.10;;;8.90;73.90;;;;;;5028006;28;20422;-79
2022/04/12 00:23:26;;;;;;;12.07;5.80;;;8.90;74.00;;;;;;5032142;28;20511;-80
2022/04/12 00:25:53;;;;;;;9.30;6.37;;;8.80;74.20;;;;;;5030564;28;20515;-78
2022/04/12 00:28:19;;;;;;;10.13;6.13;;;8.90;74.60;;;;;;5036020;28;20187;-80
2022/04/12 00:30:45;;;;;;;10.97;6.07;;;8.90;74.90;;;;;;5033665;28;20445;-79
2022/04/12 00:33:11;;;;;;;12.43;5.13;;;8.90;75.10;;;;;;5038251;28;21001;-77
2022/04/12 00:35:37;;;;;;;9.00;6.20;;;8.90;75.40;;;;;;5035640;28;20200;-79
2022/04/12 00:38:13;;;;;;;13.47;6.10;;;8.90;75.40;;;;;;5037004;28;20499;-78
2022/04/12 00:40:40;;;;;;;9.90;5.67;;;8.90;75.40;;;;;;5029333;28;20970;-78
2022/04/12 00:43:06;;;;;;;8.93;5.60;;;8.80;75.10;;;;;;5034516;28;20446;-78
2022/04/12 00:45:32;;;;;;;12.80;6.03;;;8.80;75.10;;;;;;5031327;28;20463;-76
2022/04/12 00:47:57;;;;;;;9.40;6.00;;;8.80;75.10;;;;;;5032615;28;20416;-79
2022/04/12 00:50:23;;;;;;;11.00;5.67;;;8.80;74.50;;;;;;5032060;28;20676;-78
2022/04/12 00:52:51;;;;;;;10.60;6.10;;;8.80;74.60;;;;;;5031895;28;20180;-78
2022/04/12 00:55:17;;;;;;;13.93;6.57;;;8.70;74.80;;;;;;5031912;28;20522;-76
2022/04/12 00:57:43;;;;;;;16.37;8.07;;;8.70;75.20;;;;;;5030187;28;20977;-78
2022/04/12 01:00:11;;;;;;;13.17;7.60;;;8.70;75.40;;;;;;5031303;28;20511;-76
2022/04/12 01:02:36;;;;;;;14.50;7.47;;;8.70;75.40;;;;;;5038489;28;20403;-79
2022/04/12 01:05:06;;;;;;;12.67;6.50;;;8.70;74.90;;;;;;5034122;28;20603;-79
2022/04/12 01:07:32;;;;;;;8.70;5.33;;;8.70;74.90;;;;;;5029940;28;20423;-77
2022/04/12 01:09:58;;;;;;;10.03;6.30;;;8.60;74.90;;;;;;5030914;28;20860;-77
2022/04/12 01:12:28;;;;;;;11.43;6.27;;;8.60;75.10;;;;;;5038209;28;20457;-77
2022/04/12 01:14:54;;;;;;;8.13;5.00;;;8.60;75.20;;;;;;5031174;28;20925;-76
2022/04/12 01:17:20;;;;;;;12.20;7.00;;;8.50;75.40;;;;;;5031845;28;20491;-77
2022/04/12 01:19:46;;;;;;;11.27;6.07;;;8.50;75.50;;;;;;5032449;28;20415;-80
2022/04/12 01:22:26;;;;;;;10.97;5.97;;;8.50;75.70;;;;;;5031400;28;20177;-79
2022/04/12 01:24:51;;;;;;;8.17;5.40;;;8.50;76.10;;;;;;5032713;28;20239;-76
2022/04/12 01:27:17;;;;;;;10.20;5.67;;;8.50;76.20;;;;;;5036820;28;20420;-76
2022/04/12 01:29:43;;;;;;;8.13;5.70;;;8.50;76.20;;;;;;5036321;28;20220;-78
2022/04/12 01:32:09;;;;;;;11.10;6.40;;;8.40;76.20;;;;;;5040036;28;20179;-77
2022/04/12 01:34:35;;;;;;;11.90;6.30;;;8.40;76.40;;;;;;5039807;28;20177;-78
2022/04/12 01:37:02;;;;;;;12.07;6.37;;;8.40;76.50;;;;;;5042058;28;20832;-75
2022/04/12 01:39:29;;;;;;;9.93;5.67;;;8.40;76.50;;;;;;5038405;28;20416;-78
2022/04/12 01:41:55;;;;;;;10.53;6.70;;;8.30;76.80;;;;;;5039789;28;20493;-75
2022/04/12 01:44:21;;;;;;;8.50;5.10;;;8.30;76.80;;;;;;5035335;28;20459;-76
2022/04/12 01:46:46;;;;;;;9.27;5.87;;;8.20;77.00;;;;;;5035850;28;20197;-76
2022/04/12 01:49:12;;;;;;;9.80;5.23;;;8.20;77.30;;;;;;5035289;28;20193;-76
2022/04/12 01:51:38;;;;;;;10.23;6.00;;;8.20;77.30;;;;;;5045224;28;20200;-78
2022/04/12 01:54:04;;;;;;;9.27;5.47;;;8.20;77.30;;;;;;5034062;28;20185;-79
2022/04/12 01:56:31;;;;;;;9.50;5.43;;;8.10;77.40;;;;;;5035410;28;20281;-79
2022/04/12 01:59:02;;;;;;;11.07;5.67;;;8.10;77.60;;;;;;5035402;28;20200;-76
2022/04/12 02:01:28;;;;;;;10.40;5.73;;;8.10;77.40;;;;;;5036145;28;20822;-76
2022/04/12 02:03:54;;;;;;;12.57;5.93;;;8.00;77.40;;;;;;5035260;28;20420;-76
2022/04/12 02:06:20;;;;;;;11.40;7.00;;;8.00;77.00;;;;;;5034901;28;20436;-78
2022/04/12 02:08:46;;;;;;;12.30;6.43;;;7.90;78.00;;;;;;5035649;28;20435;-77
2022/04/12 02:11:11;;;;;;;11.07;6.33;;;7.90;78.60;;;;;;5033878;28;20420;-78
2022/04/12 02:13:37;;;;;;;10.87;6.10;;;7.90;78.70;;;;;;5038467;28;20181;-77
2022/04/12 02:16:03;;;;;;;11.17;6.23;;;7.90;78.70;;;;;;5048978;28;20196;-77
2022/04/12 02:18:29;;;;;;;10.27;5.50;;;7.90;78.90;;;;;;5039105;28;20565;-75
2022/04/12 02:20:54;;;;;;;12.40;6.40;;;7.90;78.60;;;;;;5041341;28;20934;-76
2022/04/12 02:23:20;;;;;;;13.70;5.80;;;8.00;78.60;;;;;;5035702;28;20181;-77
2022/04/12 02:25:46;;;;;;;11.73;5.37;;;7.90;78.40;;;;;;5033466;28;20208;-76
2022/04/12 02:28:11;;;;;;;10.27;5.70;;;7.90;78.40;;;;;;5035253;28;20810;-77
2022/04/12 02:30:38;;;;;;;8.43;5.40;;;7.90;78.40;;;;;;5038792;28;20269;-77
2022/04/12 02:33:03;;;;;;;8.37;5.23;;;7.90;78.40;;;;;;5035696;28;20666;-77
2022/04/12 02:35:29;;;;;;;9.43;5.77;;;7.90;78.60;;;;;;5037363;28;20444;-78
2022/04/12 02:37:55;;;;;;;11.10;5.93;;;7.80;78.70;;;;;;5043708;28;20684;-76
2022/04/12 02:40:21;;;;;;;9.03;5.40;;;7.80;78.90;;;;;;5037114;28;20185;-77
2022/04/12 02:42:46;;;;;;;12.00;5.57;;;7.80;78.90;;;;;;5042589;28;20209;-77
2022/04/12 02:45:12;;;;;;;10.67;6.17;;;7.70;78.90;;;;;;5032244;28;20225;-78
2022/04/12 02:47:38;;;;;;;10.07;6.43;;;7.70;79.20;;;;;;5033621;28;20181;-78
2022/04/12 02:50:04;;;;;;;11.47;6.20;;;7.60;79.30;;;;;;5036871;28;20279;-78
2022/04/12 02:52:30;;;;;;;11.53;6.13;;;7.60;79.70;;;;;;5039166;28;20173;-76
2022/04/12 02:54:55;;;;;;;9.60;5.80;;;7.60;79.70;;;;;;5040023;28;20419;-77
2022/04/12 02:57:21;;;;;;;9.23;6.03;;;7.60;80.00;;;;;;5034934;28;20738;-77
2022/04/12 02:59:47;;;;;;;12.40;6.23;;;7.60;79.90;;;;;;5041284;28;20192;-77
2022/04/12 03:02:12;;;;;;;9.43;6.30;;;7.60;79.90;;;;;;5034241;28;20177;-76
2022/04/12 03:04:40;;;;;;;13.87;6.40;;;7.50;79.00;;;;;;5030500;28;20933;-76
2022/04/12 03:07:06;;;;;;;11.30;6.13;;;7.50;78.90;;;;;;5045417;28;20181;-77
2022/04/12 03:09:32;;;;;;;14.13;7.20;;;7.60;79.00;;;;;;5034020;28;20507;-76
2022/04/12 03:11:58;;;;;;;10.67;6.27;;;7.60;79.20;;;;;;5044350;28;20439;-76
2022/04/12 03:14:23;;;;;;;12.30;7.43;;;7.50;79.20;;;;;;5039395;28;20199;-77
2022/04/12 03:16:49;;;;;;;9.03;6.27;;;7.50;79.30;;;;;;5045361;28;20224;-77
2022/04/12 03:19:15;;;;;;;11.30;6.00;;;7.50;79.50;;;;;;5045451;28;20188;-77
2022/04/12 03:21:42;;;;;;;9.83;5.77;;;7.50;79.70;;;;;;5041948;28;20193;-78
2022/04/12 03:24:08;;;;;;;9.97;6.53;;;7.50;79.70;;;;;;5042786;28;20475;-76
2022/04/12 03:26:35;;;;;;;12.10;5.70;;;7.50;79.70;;;;;;5036750;28;20475;-76
2022/04/12 03:29:01;;;;;;;10.60;5.90;;;7.50;79.70;;;;;;5029376;28;20464;-78
2022/04/12 03:31:27;;;;;;;11.60;6.80;;;7.50;79.70;;;;;;5039093;28;20420;-76
2022/04/12 03:33:53;;;;;;;13.23;6.80;;;7.50;79.70;;;;;;5041652;28;20486;-78
2022/04/12 03:36:18;;;;;;;10.87;6.50;;;7.50;79.60;;;;;;5041717;28;20213;-78
2022/04/12 03:38:51;;;;;;;12.27;6.43;;;7.40;79.70;;;;;;5043373;28;20740;-77
2022/04/12 03:41:23;;;;;;;13.30;6.50;;;7.40;80.00;;;;;;5042559;28;20181;-78
2022/04/12 03:43:52;;;;;;;11.80;7.40;;;7.40;80.00;;;;;;5043639;28;20498;-78
2022/04/12 03:46:19;;;;;;;15.27;7.30;;;7.30;80.20;;;;;;5033395;28;20811;-77
2022/04/12 03:48:45;;;;;;;12.07;7.10;;;7.30;80.50;;;;;;5036202;28;20428;-77
2022/04/12 03:51:12;;;;;;;16.50;6.80;;;7.40;80.30;;;;;;5040758;28;20931;-77
2022/04/12 03:53:38;;;;;;;10.90;6.73;;;7.40;80.50;;;;;;5037748;28;20431;-78
2022/04/12 03:56:07;;;;;;;12.07;6.50;;;7.40;80.50;;;;;;5032189;28;20451;-79
2022/04/12 03:58:39;;;;;;;14.10;6.23;;;7.40;80.80;;;;;;5038533;28;20830;-77
2022/04/12 04:01:05;;;;;;;10.80;6.20;;;7.40;80.80;;;;;;5038250;28;20419;-77
2022/04/12 04:03:31;;;;;;;10.80;5.90;;;7.40;80.30;;;;;;5039965;28;20412;-76
2022/04/12 04:05:57;;;;;;;12.93;6.93;;;7.30;80.00;;;;;;5036536;28;20488;-77
2022/04/12 04:08:23;;;;;;;12.90;7.03;;;7.30;80.60;;;;;;5034373;28;20531;-76
2022/04/12 04:10:49;;;;;;;12.03;6.63;;;7.20;80.80;;;;;;5040001;28;20458;-75
2022/04/12 04:13:17;;;;;;;11.40;6.40;;;7.20;80.80;;;;;;5035162;28;20428;-77
2022/04/12 04:15:43;;;;;;;9.60;6.23;;;7.30;80.90;;;;;;5038050;28;20467;-77
2022/04/12 04:18:08;;;;;;;15.43;6.73;;;7.30;80.80;;;;;;5038315;28;20478;-76
2022/04/12 04:20:35;;;;;;;10.67;6.93;;;7.30;80.90;;;;;;5043290;28;20177;-76
2022/04/12 04:23:01;;;;;;;11.50;6.80;;;7.30;80.90;;;;;;5036156;28;20554;-77
2022/04/12 04:25:26;;;;;;;10.33;6.43;;;7.30;80.90;;;;;;5036245;28;20470;-79
2022/04/12 04:27:52;;;;;;;10.70;6.53;;;7.30;81.20;;;;;;5034301;28;20443;-76
2022/04/12 04:30:19;;;;;;;11.90;6.30;;;7.20;81.10;;;;;;5035901;28;20278;-76
2022/04/12 04:32:45;;;;;;;13.53;8.10;;;7.20;81.20;;;;;;5038805;28;20522;-76
2022/04/12 04:35:11;;;;;;;12.63;7.30;;;7.20;81.20;;;;;;5041180;28;20440;-77
2022/04/12 04:37:48;;;;;;;11.63;6.70;;;7.10;81.20;;;;;;5039346;28;20455;-77
2022/04/12 04:40:19;;;;;;;16.37;6.90;;;7.10;81.40;;;;;;5042921;28;20419;-79
2022/04/12 04:42:47;;;;;;;14.17;7.97;;;7.10;81.20;;;;;;5040019;28;20416;-76
2022/04/12 04:45:13;;;;;;;13.10;7.07;;;7.10;80.90;;;;;;5038985;28;20470;-77
2022/04/12 04:47:56;;;;;;;12.13;7.63;;;7.10;81.20;;;;;;5032156;28;20420;-75
2022/04/12 04:50:24;;;;;;;14.60;7.40;;;7.10;81.40;;;;;;5034631;28;20530;-78
2022/04/12 04:52:51;;;;;;;13.27;7.57;;;7.10;81.50;;;;;;5034077;28;20435;-76
2022/04/12 04:55:17;;;;;;;15.60;7.67;;;7.10;81.70;;;;;;5032497;28;20444;-76
2022/04/12 04:57:44;;;;;;;22.53;11.10;;;7.00;81.80;;;;;;5038292;28;20485;-78
2022/04/12 05:00:17;;;;;;;16.53;9.20;;;7.00;81.80;;;;;;5036358;28;20910;-77
2022/04/12 05:02:48;;;;;;;15.47;8.50;;;7.00;81.90;;;;;;5041737;28;20449;-76
2022/04/12 05:05:14;;;;;;;15.00;8.10;;;6.90;81.90;;;;;;5035628;28;20484;-77
2022/04/12 05:07:42;;;;;;;12.57;7.70;;;6.80;82.40;;;;;;5032761;28;20428;-77
2022/04/12 05:10:12;;;;;;;16.13;7.80;;;6.90;82.10;;;;;;5037248;28;20420;-77
2022/04/12 05:12:38;;;;;;;14.63;8.47;;;7.00;81.80;;;;;;5036265;28;20522;-76
2022/04/12 05:15:04;;;;;;;15.17;8.30;;;7.00;81.40;;;;;;5034314;28;20529;-75
2022/04/12 05:17:30;;;;;;;14.93;8.50;;;7.10;81.50;;;;;;5046194;28;20940;-77
2022/04/12 05:19:58;;;;;;;18.83;7.80;;;7.10;81.50;;;;;;5035390;28;21114;-76
2022/04/12 05:22:25;;;;;;;14.80;7.80;;;7.20;81.70;;;;;;5038482;28;20773;-78
2022/04/12 05:24:51;;;;;;;14.90;8.60;;;7.20;81.50;;;;;;5030774;28;20487;-75
2022/04/12 05:27:17;;;;;;;15.00;7.90;;;7.20;81.40;;;;;;5032663;28;20515;-77
2022/04/12 05:29:43;;;;;;;16.10;7.70;;;7.30;81.20;;;;;;5030453;28;20416;-77
2022/04/12 05:32:10;;;;;;;14.40;8.23;;;7.30;81.20;;;;;;5032562;28;20419;-77
2022/04/12 05:34:36;;;;;;;17.07;9.00;;;7.30;80.50;;;;;;5032118;28;20424;-77
2022/04/12 05:37:03;;;;;;;14.03;8.00;;;7.30;80.00;;;;;;5034931;28;20486;-77
2022/04/12 05:39:29;;;;;;;14.23;7.97;;;7.30;80.50;;;;;;5030892;28;20784;-75
2022/04/12 05:42:00;;;;;;;15.30;8.53;;;7.40;80.60;;;;;;5041165;28;20514;-76
2022/04/12 05:44:29;;;;;;;11.70;7.47;;;7.50;80.50;;;;;;5032740;28;20196;-77
2022/04/12 05:46:55;;;;;;;13.40;8.40;;;7.50;79.90;;;;;;5031680;28;20515;-74
2022/04/12 05:49:21;;;;;;;14.70;9.20;;;7.60;79.50;;;;;;5032134;28;20806;-76
2022/04/12 05:51:47;;;;;;;14.73;8.93;;;7.70;79.30;;;;;;5033104;28;20430;-76
2022/04/12 05:54:13;;;;;;;16.97;9.20;;;7.70;79.00;;;;;;5034280;28;20419;-76
2022/04/12 05:56:39;;;;;;;15.83;9.30;;;7.80;78.70;;;;;;5038484;28;20454;-77
2022/04/12 05:59:06;;;;;;;14.20;9.27;;;7.80;78.60;;;;;;5039993;28;20213;-77
2022/04/12 06:01:32;;;;;;;18.87;9.83;;;7.90;78.90;;;;;;5045906;28;20201;-77
2022/04/12 06:03:58;;;;;;;13.57;9.10;;;7.90;79.20;;;;;;5036783;28;20412;-78
2022/04/12 06:06:23;;;;;;;14.50;8.97;;;7.90;79.30;;;;;;5042678;28;20471;-76
2022/04/12 06:08:50;;;;;;;17.73;8.90;;;8.00;79.20;;;;;;5036691;28;20260;-76
2022/04/12 06:11:16;;;;;;;17.80;9.70;;;7.90;78.60;;;;;;5034653;28;20968;-79
2022/04/12 06:13:41;;;;;;;18.13;9.67;;;8.00;79.00;;;;;;5034541;28;20427;-76
2022/04/12 06:16:07;;;;;;;15.30;8.67;;;8.10;79.00;;;;;;5036811;28;20201;-76
2022/04/12 06:18:33;;;;;;;13.60;9.23;;;8.20;78.60;;;;;;5036386;28;20550;-76
2022/04/12 06:20:59;;;;;;;16.63;9.40;;;8.20;78.60;;;;;;5035526;28;20193;-76
2022/04/12 06:23:24;;;;;;;17.10;9.07;;;8.30;78.40;;;;;;5039288;28;20663;-78
2022/04/12 06:25:50;;;;;;;14.80;9.23;;;8.40;78.00;;;;;;5034366;28;20197;-77
2022/04/12 06:28:16;;;;;;;15.90;8.97;;;8.50;77.60;;;;;;5037762;28;20648;-77
2022/04/12 06:30:43;;;;;;;14.40;9.60;;;8.60;77.00;;;;;;5029699;28;20195;-78
2022/04/12 06:33:09;;;;;;;18.70;9.93;;;8.70;76.70;;;;;;5039803;28;20200;-75
2022/04/12 06:35:35;;;;;;;17.57;9.43;;;8.80;76.20;;;;;;5037647;28;21004;-76
2022/04/12 06:38:02;;;;;;;15.40;9.37;;;8.90;75.90;;;;;;5041471;28;20205;-78
2022/04/12 06:40:28;;;;;;;15.33;9.77;;;9.00;75.10;;;;;;5039426;28;20598;-76
2022/04/12 06:42:54;;;;;;;12.10;8.30;;;9.00;73.70;;;;;;5042618;28;20447;-77
2022/04/12 06:45:20;;;;;;;15.43;9.10;;;9.10;73.70;;;;;;5039361;28;20493;-78
2022/04/12 06:47:53;;;;;;;17.53;9.87;;;9.30;73.50;;;;;;5034446;28;20182;-77
2022/04/12 06:50:19;;;;;;;18.43;10.53;;;9.50;72.60;;;;;;5034382;28;20443;-77
2022/04/12 06:52:45;;;;;;;15.40;9.27;;;9.60;71.70;;;;;;5034000;28;20420;-76
2022/04/12 06:55:11;;;;;;;17.43;10.00;;;9.70;71.30;;;;;;5033780;28;20443;-76
2022/04/12 06:57:37;;;;;;;18.93;9.37;;;9.90;71.30;;;;;;5039135;28;20209;-76
2022/04/12 07:00:08;;;;;;;11.33;8.20;;;10.00;70.40;;;;;;5038779;28;20181;-78
2022/04/12 07:02:35;;;;;;;12.90;7.80;;;10.10;69.90;;;;;;5035720;28;20412;-76
2022/04/12 07:05:01;;;;;;;19.33;9.20;;;10.30;69.80;;;;;;5036506;28;20435;-77
2022/04/12 07:07:28;;;;;;;15.67;9.27;;;10.40;69.20;;;;;;5035460;28;20426;-75
2022/04/12 07:09:55;;;;;;;16.83;10.60;;;10.50;68.90;;;;;;5039207;28;20535;-76
2022/04/12 07:12:21;;;;;;;14.70;9.13;;;10.60;67.70;;;;;;5035869;28;20431;-77
2022/04/12 07:14:47;;;;;;;15.57;9.53;;;10.80;66.90;;;;;;5040030;28;20517;-76
2022/04/12 07:17:12;;;;;;;15.93;9.03;;;10.80;66.40;;;;;;5042766;28;20577;-77
2022/04/12 07:19:38;;;;;;;14.10;8.40;;;10.90;66.00;;;;;;5038380;28;20466;-76
2022/04/12 07:22:04;;;;;;;14.10;9.17;;;11.00;65.80;;;;;;5041923;28;20177;-76
2022/04/12 07:24:30;;;;;;;12.30;8.37;;;11.00;65.40;;;;;;5035561;28;20181;-77
2022/04/12 07:26:56;;;;;;;17.53;8.70;;;11.10;65.30;;;;;;5034599;28;20457;-76
2022/04/12 07:29:22;;;;;;;11.63;8.33;;;11.20;64.70;;;;;;5033287;28;20428;-76
2022/04/12 07:31:48;;;;;;;18.00;9.33;;;11.30;64.20;;;;;;5036100;28;20826;-77
2022/04/12 07:34:14;;;;;;;15.03;8.30;;;11.50;63.90;;;;;;5036143;28;20227;-77
2022/04/12 07:36:43;;;;;;;20.03;8.93;;;11.60;63.50;;;;;;5036285;28;20205;-77
2022/04/12 07:39:09;;;;;;;12.27;8.00;;;11.70;63.20;;;;;;5033562;28;20471;-77
2022/04/12 07:41:35;;;;;;;13.17;8.17;;;11.80;62.20;;;;;;5027790;28;20436;-77
2022/04/12 07:44:01;;;;;;;11.73;7.80;;;12.00;61.90;;;;;;5034760;28;20902;-77
2022/04/12 07:46:27;;;;;;;13.50;7.80;;;12.10;61.60;;;;;;5031365;28;20747;-75
2022/04/12 07:48:53;;;;;;;11.97;7.23;;;12.20;61.20;;;;;;5033097;28;20470;-77
2022/04/12 07:51:18;;;;;;;14.70;7.37;;;12.30;61.20;;;;;;5031802;28;20204;-77
2022/04/12 07:53:44;;;;;;;13.27;8.27;;;12.50;60.90;;;;;;5032779;28;20193;-76
2022/04/12 07:56:10;;;;;;;11.33;7.17;;;12.60;60.10;;;;;;5039042;28;20210;-77
2022/04/12 07:58:36;;;;;;;12.20;7.63;;;12.80;59.30;;;;;;5035626;28;20255;-76
2022/04/12 08:01:01;;;;;;;12.00;6.53;;;13.00;59.10;;;;;;5039162;28;20523;-77
2022/04/12 08:03:27;;;;;;;11.43;7.07;;;13.00;58.40;;;;;;5045807;28;20176;-76
2022/04/12 08:05:53;;;;;;;13.27;7.40;;;13.20;57.60;;;;;;5040616;28;20738;-77
2022/04/12 08:08:19;;;;;;;13.10;7.03;;;13.30;57.20;;;;;;5031524;28;20193;-77
2022/04/12 08:10:44;;;;;;;10.60;6.20;;;13.40;57.00;;;;;;5040660;28;20419;-76
2022/04/12 08:13:11;;;;;;;14.77;7.27;;;13.50;56.10;;;;;;5038505;28;20173;-78
2022/04/12 08:15:37;;;;;;;9.10;7.03;;;13.60;56.00;;;;;;5038845;28;20205;-76
2022/04/12 08:18:04;;;;;;;13.50;7.33;;;13.60;55.70;;;;;;5036362;28;20463;-76
2022/04/12 08:20:29;;;;;;;13.93;7.07;;;13.80;55.70;;;;;;5033668;28;21005;-75
2022/04/12 08:22:56;;;;;;;9.60;5.97;;;14.00;55.40;;;;;;5032641;28;20412;-77
2022/04/12 08:25:22;;;;;;;10.17;5.90;;;14.20;55.30;;;;;;5034418;28;20204;-75
2022/04/12 08:27:48;;;;;;;19.20;7.10;;;14.40;55.20;;;;;;5040187;28;20427;-75
2022/04/12 08:30:14;;;;;;;12.17;6.70;;;14.60;54.00;;;;;;5046126;28;20426;-78
2022/04/12 08:32:41;;;;;;;13.97;7.53;;;14.70;52.90;;;;;;5058203;28;20503;-76
2022/04/12 08:35:07;;;;;;;11.27;7.00;;;14.70;52.80;;;;;;5042503;28;20439;-76
2022/04/12 08:37:33;;;;;;;14.43;7.40;;;14.80;53.30;;;;;;5041329;28;20491;-78
2022/04/12 08:39:59;;;;;;;11.17;7.07;;;14.90;52.50;;;;;;5036257;28;20416;-76
2022/04/12 08:42:25;;;;;;;9.53;6.50;;;15.20;51.70;;;;;;5037327;28;20422;-77
2022/04/12 08:44:51;;;;;;;10.23;6.10;;;15.40;51.40;;;;;;5037835;28;20420;-75
2022/04/12 08:47:19;;;;;;;13.13;6.70;;;15.60;51.70;;;;;;5038751;28;20186;-76
2022/04/12 08:49:45;;;;;;;20.80;6.10;;;15.70;50.20;;;;;;5037396;28;20945;-76
2022/04/12 08:52:13;;;;;;;15.23;6.50;;;15.80;50.10;;;;;;5036242;28;20496;-77
2022/04/12 08:54:43;;;;;;;14.60;6.73;;;15.70;50.10;;;;;;5047508;28;20494;-77
2022/04/12 08:57:10;;;;;;;11.30;6.53;;;15.80;50.60;;;;;;5044195;28;20442;-76
2022/04/12 08:59:37;;;;;;;9.60;6.97;;;15.90;50.50;;;;;;5039014;28;20418;-75
2022/04/12 09:02:06;;;;;;;14.60;7.10;;;15.80;51.00;;;;;;5032762;28;20416;-76
2022/04/12 09:04:33;;;;;;;11.03;7.00;;;15.80;51.00;;;;;;5032892;28;20426;-77
2022/04/12 09:07:00;;;;;;;12.63;6.93;;;15.80;51.40;;;;;;5032249;28;20531;-78
2022/04/12 09:09:28;;;;;;;15.00;7.17;;;15.90;51.40;;;;;;5037666;28;20419;-77
2022/04/12 09:12:02;;;;;;;20.70;7.33;;;16.00;51.40;;;;;;5033073;28;20408;-78
2022/04/12 09:14:46;;;;;;;14.00;7.60;;;16.20;51.60;;;;;;5024202;28;20898;-78
2022/04/12 09:17:20;;;;;;;15.10;7.27;;;16.00;51.80;;;;;;5043380;28;20410;-78
2022/04/12 09:19:51;;;;;;;13.20;6.93;;;15.90;52.60;;;;;;5043920;28;20415;-78
2022/04/12 09:22:28;;;;;;;13.43;7.53;;;15.90;52.20;;;;;;5033264;28;20819;-77
2022/04/12 09:24:53;;;;;;;10.70;6.53;;;15.90;52.40;;;;;;5032981;28;20826;-78
2022/04/12 09:27:31;;;;;;;10.83;6.83;;;16.00;51.20;;;;;;5037762;28;20426;-77
2022/04/12 09:30:03;;;;;;;10.60;7.00;;;16.20;51.40;;;;;;5037005;28;20176;-79
2022/04/12 09:32:34;;;;;;;13.40;6.50;;;16.40;51.00;;;;;;5041570;28;20431;-79
2022/04/12 09:35:00;;;;;;;8.57;5.57;;;16.60;50.30;;;;;;5042390;28;20423;-79
2022/04/12 09:37:27;;;;;;;10.00;5.17;;;16.70;48.70;;;;;;5032735;28;20451;-78
2022/04/12 09:39:59;;;;;;;8.80;5.37;;;16.80;48.90;;;;;;5036585;28;20176;-78
2022/04/12 09:42:40;;;;;;;9.27;4.90;;;17.10;47.00;;;;;;5034245;28;20429;-79
2022/04/12 09:45:07;;;;;;;8.80;5.30;;;17.20;46.70;;;;;;5038157;28;20446;-79
2022/04/12 09:47:33;;;;;;;7.90;4.97;;;17.40;46.70;;;;;;5024157;28;20423;-77
2022/04/12 09:50:00;;;;;;;7.13;4.70;;;17.60;46.20;;;;;;5044704;28;20503;-78
2022/04/12 09:52:27;;;;;;;9.30;5.00;;;17.90;46.10;;;;;;5037472;28;20419;-79
2022/04/12 09:54:56;;;;;;;6.47;4.53;;;18.00;45.00;;;;;;5047152;28;20493;-78
2022/04/12 09:57:24;;;;;;;7.87;4.37;;;18.20;44.20;;;;;;5038983;28;20463;-77
2022/04/12 09:59:57;;;;;;;8.47;5.30;;;18.40;44.20;;;;;;5030326;28;20918;-77
2022/04/12 10:02:24;;;;;;;11.60;5.03;;;18.50;43.50;;;;;;5037804;28;20498;-78
2022/04/12 10:04:52;;;;;;;9.30;4.93;;;18.60;43.80;;;;;;5043091;28;20484;-77
2022/04/12 10:07:20;;;;;;;16.40;5.37;;;18.60;43.90;;;;;;5038563;28;20417;-78
2022/04/12 10:09:48;;;;;;;8.40;4.43;;;18.70;43.50;;;;;;5035815;28;20728;-78
2022/04/12 10:12:15;;;;;;;7.80;5.57;;;18.80;42.80;;;;;;5034376;28;20515;-77
2022/04/12 10:14:41;;;;;;;8.43;4.00;;;18.90;43.70;;;;;;5034091;28;20413;-78
2022/04/12 10:17:07;;;;;;;8.10;4.40;;;18.90;42.80;;;;;;5043725;28;20441;-76
2022/04/12 10:19:35;;;;;;;6.50;3.93;;;19.00;43.10;;;;;;5030939;28;20414;-78
2022/04/12 10:22:03;;;;;;;8.83;5.03;;;19.10;42.40;;;;;;5036600;28;20755;-77
2022/04/12 10:24:30;;;;;;;5.83;4.30;;;19.10;42.30;;;;;;5042171;28;20443;-77
2022/04/12 10:26:57;;;;;;;9.63;4.40;;;19.10;42.70;;;;;;5037150;28;20963;-79
2022/04/12 10:29:23;;;;;;;5.33;3.83;;;19.10;42.00;;;;;;5031584;28;20963;-77
2022/04/12 10:31:57;;;;;;;5.53;3.80;;;19.20;42.60;;;;;;5034687;28;20428;-78
2022/04/12 10:34:24;;;;;;;9.47;4.10;;;19.30;41.80;;;;;;5041771;28;20429;-78
2022/04/12 10:36:58;;;;;;;6.70;3.27;;;19.40;41.60;;;;;;5040623;28;20446;-77
2022/04/12 10:39:32;;;;;;;7.60;4.13;;;19.50;42.00;;;;;;5044138;28;20549;-79
2022/04/12 10:42:08;;;;;;;5.80;3.87;;;19.60;40.80;;;;;;5038678;28;20423;-78
2022/04/12 10:44:50;;;;;;;6.20;3.53;;;19.80;40.60;;;;;;5029513;28;20428;-78
2022/04/12 10:47:35;;;;;;;4.57;3.27;;;19.90;38.30;;;;;;5033422;28;20409;-77
2022/04/12 10:50:03;;;;;;;7.07;3.60;;;20.10;38.80;;;;;;5040960;28;20446;-77
2022/04/12 10:52:35;;;;;;;8.27;3.80;;;20.30;38.30;;;;;;5034149;28;20477;-77
2022/04/12 10:55:05;;;;;;;8.20;4.20;;;20.50;37.80;;;;;;5035469;28;20501;-77
2022/04/12 10:57:31;;;;;;;10.83;3.57;;;20.80;37.10;;;;;;5035240;28;20460;-77
2022/04/12 10:59:58;;;;;;;6.53;3.43;;;21.00;35.60;;;;;;5036979;28;20516;-78
2022/04/12 11:02:44;;;;;;;5.80;3.60;;;21.30;35.20;;;;;;5039469;28;20443;-78
2022/04/12 11:05:42;;;;;;;6.10;3.13;;;21.70;35.20;;;;;;5039243;28;20465;-78
2022/04/12 11:08:33;;;;;;;3.73;2.90;;;22.00;34.50;;;;;;5031061;28;20555;-77
2022/04/12 11:10:59;;;;;;;8.60;3.80;;;22.20;34.30;;;;;;5037398;28;20423;-78
2022/04/12 11:13:28;;;;;;;7.23;3.40;;;22.60;33.90;;;;;;5044789;28;20442;-78
2022/04/12 11:16:00;;;;;;;3.77;2.87;;;22.90;32.90;;;;;;5056742;28;20662;-77
2022/04/12 11:18:45;;;;;;;6.03;2.87;;;23.10;31.60;;;;;;5040703;28;20465;-78
2022/04/12 11:21:10;;;;;;;4.63;2.73;;;23.20;31.60;;;;;;5041275;28;20430;-78
2022/04/12 11:24:04;;;;;;;4.87;3.20;;;23.30;31.60;;;;;;5041835;28;20439;-77
2022/04/12 11:26:52;;;;;;;5.50;2.90;;;23.40;32.00;;;;;;5038267;28;20224;-78
2022/04/12 11:29:21;;;;;;;7.13;3.60;;;23.30;31.90;;;;;;5025335;28;20944;-78
2022/04/12 11:31:53;;;;;;;4.73;2.40;;;23.30;30.90;;;;;;5032463;28;20577;-78
2022/04/12 11:34:20;;;;;;;4.17;2.30;;;23.20;31.90;;;;;;5041327;28;20924;-78
2022/04/12 11:36:51;;;;;;;3.50;2.60;;;23.20;31.60;;;;;;5038443;28;20442;-77
2022/04/12 11:39:28;;;;;;;4.87;2.60;;;23.20;32.00;;;;;;5035568;28;20470;-78
2022/04/12 11:41:59;;;;;;;7.33;3.10;;;23.30;31.50;;;;;;5036742;28;20896;-77
2022/04/12 11:44:26;;;;;;;4.47;2.70;;;23.10;32.00;;;;;;5038067;28;20526;-77
2022/04/12 11:47:12;;;;;;;5.23;3.00;;;22.90;33.10;;;;;;5036125;28;20448;-77
2022/04/12 11:49:42;;;;;;;3.73;2.83;;;23.00;32.80;;;;;;5031958;28;20448;-77
2022/04/12 11:52:09;;;;;;;4.23;3.07;;;23.10;33.10;;;;;;5033496;28;20488;-77
2022/04/12 11:54:40;;;;;;;4.80;2.87;;;23.30;32.90;;;;;;5036226;28;20424;-77
2022/04/12 11:57:10;;;;;;;7.53;3.47;;;23.60;32.80;;;;;;5038404;28;20449;-78
2022/04/12 11:59:47;;;;;;;4.37;3.10;;;23.80;31.60;;;;;;5037035;28;20417;-77
2022/04/12 12:02:15;;;;;;;3.43;2.60;;;23.80;32.80;;;;;;5035937;28;20405;-77
2022/04/12 12:04:47;;;;;;;5.60;3.07;;;24.00;31.70;;;;;;5040695;28;20434;-77
2022/04/12 12:07:14;;;;;;;3.57;2.67;;;23.70;32.30;;;;;;5037499;28;20813;-77
2022/04/12 12:09:58;;;;;;;4.60;2.70;;;23.60;32.80;;;;;;5038210;28;20516;-78
2022/04/12 12:12:37;;;;;;;6.33;2.53;;;23.80;32.30;;;;;;5039318;28;20922;-77
2022/04/12 12:15:16;;;;;;;3.33;2.33;;;23.60;32.50;;;;;;5030990;28;20488;-77
2022/04/12 12:17:44;;;;;;;5.67;2.90;;;23.70;32.50;;;;;;5024066;28;21294;-77
2022/04/12 12:20:10;;;;;;;3.87;2.67;;;23.70;33.10;;;;;;5032603;28;20434;-79
2022/04/12 12:22:38;;;;;;;4.13;2.47;;;23.90;32.90;;;;;;5031084;28;20426;-77
2022/04/12 12:25:05;;;;;;;5.93;2.63;;;23.90;33.10;;;;;;5039004;28;21033;-78
2022/04/12 12:27:38;;;;;;;3.73;2.70;;;24.10;33.60;;;;;;5033525;28;20426;-78
2022/04/12 12:30:09;;;;;;;4.93;3.10;;;24.30;32.30;;;;;;5032428;28;20437;-78
2022/04/12 12:32:36;;;;;;;4.33;2.40;;;24.40;32.50;;;;;;5035617;28;20457;-78
2022/04/12 12:35:08;;;;;;;4.27;2.77;;;24.50;32.80;;;;;;5039532;28;20529;-78
2022/04/12 12:37:34;;;;;;;3.93;2.83;;;24.60;32.40;;;;;;5029300;28;20465;-78
2022/04/12 12:40:01;;;;;;;6.30;2.80;;;24.60;33.30;;;;;;5036866;28;20418;-78
2022/04/12 12:42:37;;;;;;;4.00;2.60;;;24.70;32.10;;;;;;5032184;28;20950;-78
2022/04/12 12:45:11;;;;;;;4.53;2.90;;;25.00;32.10;;;;;;5032170;28;20477;-77
2022/04/12 12:47:37;;;;;;;6.80;2.40;;;25.10;31.20;;;;;;5031364;28;21303;-78
2022/04/12 12:50:08;;;;;;;7.17;2.93;;;24.90;31.90;;;;;;5043097;28;20452;-77
2022/04/12 12:52:34;;;;;;;3.93;2.80;;;24.60;32.10;;;;;;5028684;28;20481;-78